Time;durP1;ratioP1;P1;durP2;ratioP2;P2;SDS_P1;SDS_P2;PMS_P1;PMS_P2;Temp;Humidity;BMP_temperature;BMP_pressure;BME280_temperature;BME280_humidity;BME280_pressure;Samples;Min_cycle;Max_cycle;Signal;HPM_P1;HPM_P2
2021/01/27 00:02:59;;;;;;;;;37.60;33.00;;;;;6.97;41.22;98345.84;6192721;28;126149;-61
2021/01/27 00:06:01;;;;;;;;;41.00;33.00;;;;;6.99;41.20;98344.81;6209533;28;126238;-61
2021/01/27 00:09:03;;;;;;;;;42.60;36.00;;;;;6.96;41.16;98336.16;6209602;28;126176;-61
2021/01/27 00:12:05;;;;;;;;;43.60;33.00;;;;;6.95;41.24;98322.97;6197899;28;125514;-62
2021/01/27 00:15:10;;;;;;;;;43.80;35.00;;;;;7.02;41.38;98350.56;6184661;28;123835;-61
2021/01/27 00:18:15;;;;;;;;;42.20;34.20;;;;;6.96;41.20;98321.94;6167139;28;125416;-61
2021/01/27 00:21:16;;;;;;;;;46.20;35.60;;;;;7.09;41.33;98348.66;6199561;28;126617;-61
2021/01/27 00:24:18;;;;;;;;;43.50;36.00;;;;;7.05;41.62;98341.28;6190492;28;125230;-61
2021/01/27 00:27:19;;;;;;;;;40.60;34.60;;;;;6.97;41.61;98337.00;6190539;28;126479;-62
2021/01/27 00:30:28;;;;;;;;;45.80;35.40;;;;;7.01;41.60;98337.38;6209126;28;125911;-61
2021/01/27 00:33:29;;;;;;;;;42.00;35.00;;;;;6.96;41.79;98335.34;6187517;28;127105;-61
2021/01/27 00:36:31;;;;;;;;;40.50;33.50;;;;;6.96;41.39;98338.84;6185030;28;126638;-61
2021/01/27 00:39:32;;;;;;;;;45.00;36.50;;;;;6.91;41.54;98345.88;6185007;28;127559;-61
2021/01/27 00:42:34;;;;;;;;;41.40;35.00;;;;;6.87;41.46;98313.31;6189264;28;128327;-61
2021/01/27 00:45:36;;;;;;;;;45.00;35.00;;;;;7.01;41.33;98342.72;6190507;28;127271;-61
2021/01/27 00:48:37;;;;;;;;;45.00;35.50;;;;;7.02;41.20;98339.84;6194178;28;127629;-61
2021/01/27 00:51:39;;;;;;;;;45.00;35.00;;;;;6.84;41.30;98316.41;6189597;28;126914;-62
2021/01/27 00:54:41;;;;;;;;;44.00;36.00;;;;;6.80;41.18;98304.47;6191203;28;126458;-61
2021/01/27 00:57:42;;;;;;;;;41.40;34.20;;;;;6.69;41.12;98273.00;6198755;28;129265;-61
2021/01/27 01:00:44;;;;;;;;;40.00;33.00;;;;;6.68;41.15;98281.25;6176587;28;125451;-61
2021/01/27 01:03:56;;;;;;;;;37.60;32.60;;;;;6.93;41.17;98322.38;6185757;28;124961;-62
2021/01/27 01:06:58;;;;;;;;;44.25;35.00;;;;;6.92;41.36;98318.03;6208289;28;128425;-61
2021/01/27 01:09:59;;;;;;;;;43.60;34.20;;;;;6.79;41.56;98307.38;6207468;28;126654;-61
2021/01/27 01:13:03;;;;;;;;;39.40;33.00;;;;;6.84;41.61;98324.44;6208117;28;125322;-61
2021/01/27 01:16:04;;;;;;;;;39.40;32.60;;;;;6.47;41.59;98264.41;6185633;28;127200;-61
2021/01/27 01:19:08;;;;;;;;;38.00;32.00;;;;;6.87;41.83;98333.94;6182615;28;126580;-61
2021/01/27 01:22:13;;;;;;;;;37.00;32.00;;;;;6.66;41.88;98302.88;6164975;28;126245;-62
2021/01/27 01:25:17;;;;;;;;;36.00;32.75;;;;;6.74;41.41;98307.19;6184136;28;127453;-61
2021/01/27 01:28:19;;;;;;;;;39.75;33.75;;;;;6.91;41.49;98308.34;6181381;28;125179;-60
2021/01/27 01:31:21;;;;;;;;;38.40;32.40;;;;;6.97;41.20;98321.72;6164981;28;125197;-61
2021/01/27 01:34:23;;;;;;;;;37.33;31.67;;;;;6.97;41.22;98313.69;6203607;28;124982;-61
2021/01/27 01:37:24;;;;;;;;;37.40;32.60;;;;;7.06;41.28;98324.16;6184355;28;126600;-62
2021/01/27 01:40:29;;;;;;;;;34.40;30.00;;;;;7.14;40.94;98326.59;6172295;28;127593;-60
2021/01/27 01:43:36;;;;;;;;;33.00;29.20;;;;;7.07;40.75;98331.16;6184566;28;124492;-61
2021/01/27 01:46:38;;;;;;;;;35.00;30.80;;;;;6.63;41.08;98273.03;6183609;28;124905;-61
2021/01/27 01:49:40;;;;;;;;;36.00;30.40;;;;;6.94;41.23;98311.41;6188270;28;125216;-61
2021/01/27 01:52:41;;;;;;;;;33.40;30.00;;;;;6.89;41.26;98316.59;6201262;28;126538;-61
2021/01/27 01:55:43;;;;;;;;;34.00;30.00;;;;;6.84;41.41;98278.88;6182905;28;125141;-62
2021/01/27 01:58:45;;;;;;;;;32.00;29.00;;;;;6.82;41.55;98286.34;6181523;28;125388;-61
2021/01/27 02:01:51;;;;;;;;;32.60;28.00;;;;;7.11;41.70;98327.03;6179122;28;126518;-61
2021/01/27 02:04:59;;;;;;;;;33.00;29.00;;;;;7.09;42.29;98321.88;6178517;28;126159;-61
2021/01/27 02:08:00;;;;;;;;;29.80;27.20;;;;;7.08;42.86;98322.09;6182138;28;126095;-61
2021/01/27 02:11:02;;;;;;;;;35.40;30.80;;;;;6.82;43.70;98323.84;6182326;28;128170;-61
2021/01/27 02:14:41;;;;;;;;;28.80;26.80;;;;;6.64;44.81;98318.34;6202439;28;126504;-61
2021/01/27 02:17:59;;;;;;;;;32.00;28.75;;;;;6.48;45.42;98311.59;6206037;28;126144;-62
2021/01/27 02:21:26;;;;;;;;;35.40;30.00;;;;;6.68;45.24;98316.88;6189430;28;125863;-61
2021/01/27 02:24:51;;;;;;;;;29.60;26.60;;;;;6.68;45.71;98314.22;6183302;28;126003;-61
2021/01/27 02:27:55;;;;;;;;;31.00;27.80;;;;;6.64;45.98;98313.00;6191164;28;124842;-61
2021/01/27 02:31:35;;;;;;;;;30.50;27.50;;;;;6.54;46.35;98307.25;6207466;28;126052;-61
2021/01/27 02:34:58;;;;;;;;;30.40;27.40;;;;;6.09;46.40;98231.34;6207546;28;125143;-61
2021/01/27 02:38:20;;;;;;;;;30.60;28.40;;;;;6.39;46.62;98270.00;6208037;28;125532;-61
2021/01/27 02:41:34;;;;;;;;;27.60;24.60;;;;;6.56;46.86;98301.66;6199429;28;126251;-61
2021/01/27 02:44:45;;;;;;;;;31.00;27.00;;;;;6.58;46.79;98303.13;6209336;28;124950;-61
2021/01/27 02:48:09;;;;;;;;;30.25;27.25;;;;;6.65;46.68;98311.94;6191478;28;125959;-61
2021/01/27 02:51:20;;;;;;;;;27.00;25.50;;;;;6.50;47.18;98314.03;6187964;28;126101;-61
2021/01/27 02:54:25;;;;;;;;;27.40;26.20;;;;;6.53;47.06;98314.47;6167541;28;127136;-61
2021/01/27 02:57:33;;;;;;;;;27.60;25.60;;;;;6.57;47.21;98322.88;6186294;28;124007;-61
2021/01/27 03:00:39;;;;;;;;;26.60;23.00;;;;;6.52;47.06;98320.00;6201984;28;124837;-59
2021/01/27 03:03:45;;;;;;;;;23.00;21.40;;;;;6.35;47.34;98292.84;6197842;28;124678;-60
2021/01/27 03:06:49;;;;;;;;;24.80;21.20;;;;;6.42;47.28;98319.63;6185370;28;126173;-61
2021/01/27 03:09:59;;;;;;;;;24.00;22.40;;;;;6.49;47.31;98312.41;6180705;28;123909;-61
2021/01/27 03:13:01;;;;;;;;;25.00;24.00;;;;;6.63;47.16;98310.50;6190672;28;125958;-61
2021/01/27 03:16:07;;;;;;;;;23.75;21.75;;;;;6.59;47.03;98304.75;6199259;28;125340;-60
2021/01/27 03:19:22;;;;;;;;;24.00;22.40;;;;;6.48;46.74;98290.16;6184299;28;125518;-61
2021/01/27 03:22:31;;;;;;;;;26.00;24.00;;;;;6.43;46.99;98289.97;6184981;28;125370;-61
2021/01/27 03:25:37;;;;;;;;;23.00;19.00;;;;;6.41;47.38;98308.09;6181583;28;125944;-61
2021/01/27 03:28:53;;;;;;;;;23.60;22.20;;;;;5.90;47.12;98218.84;6185408;28;126717;-61
2021/01/27 03:31:58;;;;;;;;;22.00;21.00;;;;;6.53;47.31;98311.78;6167581;28;125093;-61
2021/01/27 03:35:09;;;;;;;;;23.00;22.00;;;;;6.38;47.36;98311.19;6200800;28;124801;-61
2021/01/27 03:38:36;;;;;;;;;23.00;20.00;;;;;6.42;47.36;98309.72;6235999;28;126004;-61
2021/01/27 03:41:51;;;;;;;;;22.60;21.00;;;;;6.31;47.35;98312.22;6234033;28;124906;-61
2021/01/27 03:44:59;;;;;;;;;25.00;23.00;;;;;6.50;47.19;98304.16;6200314;28;126867;-61
2021/01/27 03:48:18;;;;;;;;;23.60;19.80;;;;;6.50;47.14;98316.72;6183110;28;123572;-61
2021/01/27 03:51:20;;;;;;;;;22.00;21.40;;;;;6.17;47.00;98249.03;6183698;28;123909;-61
2021/01/27 03:54:25;;;;;;;;;22.40;19.60;;;;;6.03;47.07;98229.50;6190318;28;125986;-61
2021/01/27 03:57:39;;;;;;;;;24.00;21.60;;;;;6.49;47.01;98313.25;6209715;28;125792;-60
2021/01/27 04:00:40;;;;;;;;;22.00;20.00;;;;;6.22;47.07;98268.78;6210076;28;126000;-61
2021/01/27 04:03:43;;;;;;;;;21.40;20.20;;;;;6.47;46.94;98293.03;6191128;28;126670;-61
2021/01/27 04:06:44;;;;;;;;;23.20;21.00;;;;;6.44;46.87;98313.03;6191712;28;125495;-61
2021/01/27 04:09:46;;;;;;;;;27.00;25.00;;;;;6.58;47.13;98310.31;6189571;28;126573;-60
2021/01/27 04:12:47;;;;;;;;;25.00;22.60;;;;;6.52;47.28;98304.78;6184572;28;125438;-61
2021/01/27 04:15:48;;;;;;;;;25.00;23.00;;;;;6.24;46.94;98236.47;6185007;28;125334;-61
2021/01/27 04:18:50;;;;;;;;;24.00;22.60;;;;;6.25;46.75;98256.88;6206130;28;126392;-61
2021/01/27 04:21:52;;;;;;;;;25.00;23.00;;;;;6.69;47.01;98313.19;6210326;28;125513;-61
2021/01/27 04:24:53;;;;;;;;;24.40;23.40;;;;;6.49;47.49;98304.38;6210090;28;127310;-61
2021/01/27 04:27:54;;;;;;;;;25.80;22.20;;;;;6.69;47.14;98313.19;6207240;28;125756;-61
2021/01/27 04:30:56;;;;;;;;;25.60;24.00;;;;;6.77;47.34;98312.94;6209533;28;127526;-61
2021/01/27 04:33:57;;;;;;;;;23.00;21.60;;;;;6.64;47.15;98278.16;6189400;28;128249;-61
2021/01/27 04:37:00;;;;;;;;;26.00;22.00;;;;;6.85;46.98;98309.19;6183869;28;124701;-62
2021/01/27 04:40:04;;;;;;;;;23.00;20.40;;;;;6.83;47.17;98306.75;6184794;28;125357;-61
2021/01/27 04:43:27;;;;;;;;;21.20;20.00;;;;;6.77;46.93;98304.91;6200635;28;126324;-60
2021/01/27 04:46:33;;;;;;;;;24.20;22.40;;;;;6.36;47.30;98262.38;6210294;28;127160;-61
2021/01/27 04:49:44;;;;;;;;;24.00;21.00;;;;;6.56;47.10;98262.31;6207674;28;126875;-61
2021/01/27 04:53:12;;;;;;;;;23.00;19.00;;;;;6.72;47.17;98296.69;6207873;28;125937;-61
2021/01/27 04:56:22;;;;;;;;;22.00;22.00;;;;;6.61;47.59;98297.31;6207963;28;127205;-61
2021/01/27 04:59:32;;;;;;;;;23.00;21.40;;;;;6.61;47.70;98294.66;6189941;28;126008;-60
2021/01/27 05:02:56;;;;;;;;;24.00;22.00;;;;;6.64;47.55;98304.13;6218893;28;126425;-62
2021/01/27 05:06:01;;;;;;;;;25.00;22.00;;;;;6.54;47.91;98304.56;6206535;28;127756;-61
2021/01/27 05:09:09;;;;;;;;;25.25;22.00;;;;;6.63;47.63;98299.81;6208082;28;125905;-61
2021/01/27 05:12:12;;;;;;;;;25.75;24.00;;;;;6.51;47.82;98295.09;6191367;28;123776;-60
2021/01/27 05:15:14;;;;;;;;;23.67;21.67;;;;;6.61;47.78;98307.22;6208539;28;126369;-60
2021/01/27 05:18:17;;;;;;;;;26.60;24.80;;;;;6.62;47.86;98316.91;6191419;28;124730;-61
2021/01/27 05:21:39;;;;;;;;;24.60;24.00;;;;;6.74;47.79;98309.88;6206490;28;125077;-60
2021/01/27 05:24:42;;;;;;;;;27.00;23.00;;;;;6.80;47.37;98311.69;6201237;28;125893;-62
2021/01/27 05:27:46;;;;;;;;;24.80;21.80;;;;;6.87;47.27;98307.97;6182932;28;124855;-61
2021/01/27 05:30:53;;;;;;;;;28.00;24.20;;;;;6.85;47.20;98304.66;6165413;28;126310;-60
2021/01/27 05:33:54;;;;;;;;;25.00;23.00;;;;;6.78;47.40;98306.56;6196437;28;125678;-61
2021/01/27 05:36:57;;;;;;;;;26.00;22.00;;;;;6.71;47.34;98291.53;6209036;28;127634;-61
2021/01/27 05:40:20;;;;;;;;;24.00;23.00;;;;;6.64;47.43;98272.81;6207293;28;127130;-61
2021/01/27 05:43:25;;;;;;;;;25.00;24.00;;;;;6.73;47.49;98305.53;6208508;28;124737;-61
2021/01/27 05:46:28;;;;;;;;;25.00;21.80;;;;;6.64;47.70;98298.78;6172209;28;123562;-61
2021/01/27 05:49:31;;;;;;;;;22.00;20.00;;;;;6.77;47.43;98304.06;6165360;28;125358;-61
2021/01/27 05:52:32;;;;;;;;;23.20;21.00;;;;;6.80;47.56;98307.16;6183793;28;124770;-61
2021/01/27 05:55:33;;;;;;;;;22.40;21.00;;;;;6.88;47.25;98306.94;6183412;28;125886;-61
2021/01/27 05:58:37;;;;;;;;;22.80;21.00;;;;;6.63;47.38;98265.81;6183309;28;127866;-60
2021/01/27 06:01:44;;;;;;;;;23.40;20.40;;;;;6.54;47.30;98259.03;6165364;28;124981;-61
2021/01/27 06:04:58;;;;;;;;;25.75;23.75;;;;;6.66;47.76;98262.69;6184328;28;126959;-61
2021/01/27 06:08:19;;;;;;;;;22.00;20.00;;;;;6.79;47.63;98308.16;6165929;28;124732;-61
2021/01/27 06:11:21;;;;;;;;;25.40;22.20;;;;;6.84;47.85;98329.00;6183052;28;125343;-61
2021/01/27 06:14:23;;;;;;;;;22.00;21.60;;;;;6.78;48.09;98319.13;6183208;28;125111;-61
2021/01/27 06:17:29;;;;;;;;;25.50;23.25;;;;;6.81;47.95;98316.00;6210093;28;126675;-61
2021/01/27 06:20:33;;;;;;;;;22.60;20.60;;;;;6.36;47.91;98254.34;6212417;28;125083;-61
2021/01/27 06:23:52;;;;;;;;;23.75;21.75;;;;;6.77;48.01;98317.47;6211586;28;127747;-62
2021/01/27 06:27:30;;;;;;;;;25.00;24.00;;;;;6.49;47.88;98264.22;6205988;28;124590;-61
2021/01/27 06:30:38;;;;;;;;;25.00;21.00;;;;;6.89;47.72;98315.78;6186180;28;125830;-61
2021/01/27 06:33:42;;;;;;;;;23.00;22.60;;;;;6.89;47.63;98313.91;6196943;28;127126;-61
2021/01/27 06:37:12;;;;;;;;;24.25;22.25;;;;;6.87;47.62;98328.56;6168811;28;123630;-61
2021/01/27 06:40:44;;;;;;;;;24.00;22.00;;;;;6.84;47.74;98324.44;6176899;28;125804;-60
2021/01/27 06:43:53;;;;;;;;;25.60;23.60;;;;;6.95;47.61;98318.44;6184904;28;124381;-61
2021/01/27 06:47:24;;;;;;;;;25.00;23.00;;;;;6.99;47.56;98310.78;6186266;28;126555;-59
2021/01/27 06:51:03;;;;;;;;;23.00;22.40;;;;;7.07;47.49;98325.81;6185571;28;124404;-61
2021/01/27 06:54:20;;;;;;;;;27.00;23.60;;;;;7.02;47.77;98329.13;6168425;28;125725;-61
2021/01/27 06:57:45;;;;;;;;;28.50;26.75;;;;;7.00;47.86;98335.72;6167038;28;126477;-60
2021/01/27 07:01:18;;;;;;;;;29.40;26.40;;;;;7.06;47.80;98341.06;6186425;28;127082;-61
2021/01/27 07:04:39;;;;;;;;;29.00;25.00;;;;;7.09;47.65;98337.13;6201997;28;126379;-61
2021/01/27 07:07:57;;;;;;;;;29.60;27.00;;;;;7.05;47.94;98326.00;6209622;28;125264;-62
2021/01/27 07:11:26;;;;;;;;;30.67;28.00;;;;;6.86;47.83;98305.47;6209807;28;126134;-59
2021/01/27 07:14:39;;;;;;;;;29.25;26.25;;;;;7.10;47.90;98347.63;6210104;28;124836;-60
2021/01/27 07:18:18;;;;;;;;;34.00;30.00;;;;;7.14;47.81;98348.84;6195340;28;124637;-61
2021/01/27 07:21:33;;;;;;;;;30.20;27.60;;;;;6.88;47.85;98314.97;6193167;28;124951;-61
2021/01/27 07:24:47;;;;;;;;;33.80;30.00;;;;;6.99;47.85;98323.38;6200863;28;122864;-61
2021/01/27 07:28:04;;;;;;;;;29.60;26.60;;;;;7.23;47.51;98347.56;6209757;28;125850;-60
2021/01/27 07:31:15;;;;;;;;;33.60;30.00;;;;;7.20;47.70;98342.66;6209589;28;125465;-60
2021/01/27 07:34:21;;;;;;;;;33.00;30.00;;;;;7.25;47.73;98339.31;6197290;28;124555;-61
2021/01/27 07:37:31;;;;;;;;;34.00;30.00;;;;;7.26;47.71;98347.16;6209048;28;127842;-60
2021/01/27 07:40:44;;;;;;;;;37.80;33.00;;;;;7.24;47.89;98335.00;6209192;28;126087;-61
2021/01/27 07:44:06;;;;;;;;;40.00;31.25;;;;;7.03;47.65;98289.75;6209997;28;125247;-61
2021/01/27 07:47:34;;;;;;;;;32.00;29.00;;;;;7.44;47.42;98346.44;6210051;28;125957;-60
2021/01/27 07:50:38;;;;;;;;;37.50;32.25;;;;;7.28;47.18;98293.34;6208633;28;125976;-62
2021/01/27 07:53:47;;;;;;;;;35.00;32.00;;;;;7.66;46.72;98357.69;6209351;28;125826;-60
2021/01/27 07:57:03;;;;;;;;;40.00;32.50;;;;;7.66;46.79;98350.47;6204430;28;124800;-60
2021/01/27 08:00:14;;;;;;;;;33.60;30.00;;;;;7.70;46.89;98348.97;6209770;28;124328;-61
2021/01/27 08:03:42;;;;;;;;;38.00;33.00;;;;;7.74;46.62;98349.38;6209313;28;124305;-59
2021/01/27 08:06:50;;;;;;;;;38.00;30.25;;;;;7.80;46.35;98351.19;6209793;28;125943;-59
2021/01/27 08:09:53;;;;;;;;;38.20;32.00;;;;;7.69;46.36;98350.00;6208610;28;125562;-58
2021/01/27 08:12:59;;;;;;;;;33.50;30.25;;;;;7.87;46.33;98353.84;6208286;28;126144;-61
2021/01/27 08:16:08;;;;;;;;;38.40;32.00;;;;;7.77;46.29;98347.06;6207655;28;125994;-60
2021/01/27 08:19:12;;;;;;;;;33.50;30.00;;;;;7.97;46.33;98367.56;6207874;28;124618;-60
2021/01/27 08:22:46;;;;;;;;;36.00;32.00;;;;;8.01;45.95;98372.31;6208691;28;126533;-60
2021/01/27 08:25:55;;;;;;;;;38.50;32.00;;;;;8.04;45.91;98365.66;6194656;28;125999;-58
2021/01/27 08:29:07;;;;;;;;;39.00;33.00;;;;;8.07;45.74;98363.38;6190784;28;123941;-59
2021/01/27 08:32:32;;;;;;;;;38.40;32.60;;;;;8.14;45.33;98369.50;6208560;28;124695;-60
2021/01/27 08:35:36;;;;;;;;;38.75;33.00;;;;;8.25;45.14;98376.88;6187564;28;125214;-59
2021/01/27 08:38:41;;;;;;;;;41.00;33.00;;;;;8.38;44.85;98367.91;6201469;28;127148;-59
2021/01/27 08:41:54;;;;;;;;;41.60;35.00;;;;;8.27;44.96;98361.34;6207915;28;126672;-61
2021/01/27 08:45:09;;;;;;;;;40.40;32.60;;;;;8.28;44.93;98376.41;6208743;28;126245;-60
2021/01/27 08:48:10;;;;;;;;;40.00;34.00;;;;;8.30;44.83;98373.56;6189637;28;125821;-61
2021/01/27 08:51:39;;;;;;;;;37.33;33.00;;;;;8.36;44.75;98374.50;6208160;28;124418;-59
2021/01/27 08:54:40;;;;;;;;;41.00;34.00;;;;;8.43;45.06;98378.81;6208125;28;125970;-60
2021/01/27 08:58:18;;;;;;;;;41.60;35.00;;;;;8.42;44.83;98379.00;6208753;28;127836;-61
2021/01/27 09:01:23;;;;;;;;;44.80;37.00;;;;;8.41;44.88;98378.19;6173169;28;127090;-59
2021/01/27 09:04:36;;;;;;;;;42.20;36.00;;;;;8.26;44.71;98334.69;6207593;28;124998;-59
2021/01/27 09:08:10;;;;;;;;;40.80;35.00;;;;;8.54;44.61;98383.47;6190157;28;125905;-60
2021/01/27 09:11:17;;;;;;;;;45.40;36.40;;;;;8.65;44.30;98390.78;6179535;28;127189;-61
2021/01/27 09:14:18;;;;;;;;;40.75;34.75;;;;;8.59;44.16;98386.31;6208170;28;124752;-61
2021/01/27 09:17:20;;;;;;;;;39.20;32.60;;;;;8.69;44.15;98396.56;6206873;28;127181;-61
2021/01/27 09:20:24;;;;;;;;;41.00;34.00;;;;;8.70;44.28;98393.63;6207447;28;125120;-59
2021/01/27 09:23:26;;;;;;;;;38.00;33.00;;;;;8.66;44.07;98378.16;6206067;28;124847;-61
2021/01/27 09:26:41;;;;;;;;;39.00;33.60;;;;;8.73;43.92;98399.63;6207443;28;125930;-62
2021/01/27 09:29:43;;;;;;;;;39.00;33.00;;;;;8.47;44.26;98390.75;6192778;28;126334;-61
2021/01/27 09:32:46;;;;;;;;;40.00;32.40;;;;;8.56;43.99;98386.72;6207428;28;128079;-61
2021/01/27 09:35:47;;;;;;;;;35.80;29.40;;;;;8.60;43.55;98392.50;6206107;28;124856;-60
2021/01/27 09:38:53;;;;;;;;;33.25;30.00;;;;;8.69;43.34;98389.31;6208106;28;125206;-62
2021/01/27 09:41:58;;;;;;;;;31.00;28.40;;;;;8.81;42.89;98388.56;6207917;28;123812;-62
2021/01/27 09:45:07;;;;;;;;;33.00;28.00;;;;;8.84;42.62;98391.66;6189629;28;124740;-60
2021/01/27 09:48:11;;;;;;;;;29.00;26.00;;;;;8.85;41.94;98376.31;6206754;28;124809;-60
2021/01/27 09:51:16;;;;;;;;;25.20;24.20;;;;;8.71;41.46;98319.22;6205100;28;124823;-60
2021/01/27 09:54:18;;;;;;;;;29.00;27.00;;;;;8.87;40.65;98334.75;6206723;28;127108;-62
2021/01/27 09:57:22;;;;;;;;;23.00;20.25;;;;;9.39;39.60;98375.47;6204981;28;126392;-64
2021/01/27 10:00:34;;;;;;;;;21.40;20.00;;;;;9.51;38.89;98377.19;6206696;28;126422;-62
2021/01/27 10:03:45;;;;;;;;;20.00;17.67;;;;;9.69;38.25;98378.19;6190667;28;126003;-62
2021/01/27 10:06:52;;;;;;;;;22.40;19.00;;;;;9.85;37.90;98369.47;6195432;28;124768;-61
2021/01/27 10:10:05;;;;;;;;;14.00;14.00;;;;;9.99;37.47;98379.00;6175224;28;125159;-61
2021/01/27 10:13:08;;;;;;;;;17.80;15.20;;;;;9.63;37.03;98330.69;6207097;28;126711;-61
2021/01/27 10:16:14;;;;;;;;;18.60;16.60;;;;;9.80;36.82;98354.03;6207146;28;125859;-62
2021/01/27 10:19:29;;;;;;;;;18.80;16.20;;;;;10.14;36.51;98384.78;6188579;28;126104;-62
2021/01/27 10:22:38;;;;;;;;;13.67;13.00;;;;;10.08;36.12;98382.19;6207874;28;126971;-62
2021/01/27 10:25:40;;;;;;;;;16.40;15.00;;;;;10.04;35.93;98381.81;6207293;28;124945;-62
2021/01/27 10:28:42;;;;;;;;;16.60;16.00;;;;;9.87;36.21;98387.03;6188759;28;125356;-63
2021/01/27 10:31:52;;;;;;;;;14.40;14.00;;;;;9.79;36.50;98383.84;6192613;28;125331;-60
2021/01/27 10:34:54;;;;;;;;;12.60;12.00;;;;;9.82;36.42;98380.72;6205772;28;124225;-61
2021/01/27 10:38:04;;;;;;;;;12.00;11.60;;;;;9.93;36.52;98386.13;6207233;28;126492;-62
2021/01/27 10:41:20;;;;;;;;;14.00;12.75;;;;;9.94;35.98;98387.78;6206547;28;125764;-61
2021/01/27 10:44:34;;;;;;;;;15.60;14.00;;;;;9.81;36.40;98382.59;6206909;28;124817;-61
2021/01/27 10:47:35;;;;;;;;;14.80;13.00;;;;;9.32;36.41;98331.72;6189166;28;124787;-60
2021/01/27 10:50:46;;;;;;;;;19.60;16.60;;;;;9.64;37.43;98388.81;6206024;28;126875;-59
2021/01/27 10:54:03;;;;;;;;;23.00;21.00;;;;;9.34;39.76;98394.16;6206028;28;124245;-59
2021/01/27 10:57:04;;;;;;;;;25.00;22.60;;;;;8.90;40.53;98345.03;6206378;28;126494;-60
2021/01/27 11:00:08;;;;;;;;;26.00;22.00;;;;;9.09;40.70;98383.50;6206907;28;125858;-59
2021/01/27 11:03:10;;;;;;;;;26.00;24.00;;;;;9.09;41.15;98386.19;6209358;28;124596;-61
2021/01/27 11:06:13;;;;;;;;;28.00;25.00;;;;;9.10;41.38;98383.28;6210027;28;125866;-60
2021/01/27 11:09:15;;;;;;;;;29.60;24.60;;;;;8.70;41.20;98322.94;6210201;28;124517;-60
2021/01/27 11:12:16;;;;;;;;;25.00;22.40;;;;;9.10;40.93;98374.38;6208235;28;126397;-60
2021/01/27 11:15:18;;;;;;;;;28.00;25.00;;;;;9.08;41.07;98381.88;6205643;28;126682;-61
2021/01/27 11:18:20;;;;;;;;;23.75;21.75;;;;;8.89;40.96;98369.47;6210972;28;125826;-62
2021/01/27 11:21:21;;;;;;;;;23.00;19.00;;;;;8.97;41.36;98361.09;6204779;28;126399;-62
2021/01/27 11:24:23;;;;;;;;;20.75;19.00;;;;;8.93;41.29;98350.00;6201076;28;124284;-60
2021/01/27 11:27:24;;;;;;;;;22.00;20.60;;;;;9.03;41.20;98373.66;6210022;28;126444;-60
2021/01/27 11:30:29;;;;;;;;;19.50;19.25;;;;;9.09;41.20;98373.56;6209269;28;125849;-61
2021/01/27 11:33:36;;;;;;;;;21.00;20.20;;;;;8.84;41.74;98337.06;6193755;28;126501;-59
2021/01/27 11:36:37;;;;;;;;;23.67;20.00;;;;;8.89;42.61;98373.00;6206382;28;127027;-60
2021/01/27 11:39:39;;;;;;;;;21.25;20.00;;;;;8.58;42.94;98341.69;6210081;28;125486;-60
2021/01/27 11:42:44;;;;;;;;;24.00;21.40;;;;;8.60;43.08;98350.31;6209882;28;125399;-60
2021/01/27 11:45:46;;;;;;;;;20.60;18.40;;;;;8.68;43.52;98374.22;6210171;28;126015;-61
2021/01/27 11:49:08;;;;;;;;;22.00;19.40;;;;;8.70;43.57;98371.31;6189974;28;124412;-59
2021/01/27 11:52:09;;;;;;;;;20.00;18.60;;;;;8.73;42.97;98378.94;6192332;28;124356;-60
2021/01/27 11:55:11;;;;;;;;;19.00;18.00;;;;;8.61;42.83;98372.63;6209727;28;126207;-60
2021/01/27 11:58:13;;;;;;;;;17.40;16.00;;;;;8.70;42.67;98377.50;6209557;28;124870;-59
2021/01/27 12:01:21;;;;;;;;;20.00;17.00;;;;;8.62;42.65;98388.53;6192982;28;124717;-59
2021/01/27 12:04:22;;;;;;;;;18.00;16.80;;;;;8.35;43.09;98359.47;6209237;28;126633;-59
2021/01/27 12:07:24;;;;;;;;;16.60;14.00;;;;;8.21;43.54;98339.91;6209560;28;125265;-60
2021/01/27 12:10:25;;;;;;;;;18.25;16.00;;;;;8.40;43.54;98383.81;6209404;28;125190;-60
2021/01/27 12:13:27;;;;;;;;;17.00;16.00;;;;;8.36;43.95;98383.41;6209086;28;127148;-58
2021/01/27 12:16:28;;;;;;;;;18.00;17.00;;;;;8.31;43.98;98385.91;6209176;28;125330;-58
2021/01/27 12:19:30;;;;;;;;;17.40;15.00;;;;;8.36;44.19;98386.09;6209186;28;127270;-59
2021/01/27 12:22:31;;;;;;;;;16.60;16.00;;;;;8.34;44.41;98380.13;6208674;28;124368;-60
2021/01/27 12:25:33;;;;;;;;;15.00;14.50;;;;;8.32;44.42;98381.38;6189189;28;126671;-60
2021/01/27 12:28:37;;;;;;;;;19.00;17.00;;;;;8.35;44.03;98381.78;6208641;28;126611;-60
2021/01/27 12:31:39;;;;;;;;;15.50;15.00;;;;;8.19;44.15;98350.88;6209339;28;126156;-63
2021/01/27 12:34:41;;;;;;;;;18.00;16.00;;;;;8.24;44.28;98359.13;6208426;28;126473;-60
2021/01/27 12:37:42;;;;;;;;;18.60;16.60;;;;;8.46;44.06;98388.28;6209941;28;126263;-61
2021/01/27 12:40:44;;;;;;;;;16.75;14.75;;;;;8.25;43.52;98368.00;6208728;28;125247;-61
2021/01/27 12:43:47;;;;;;;;;16.25;15.25;;;;;8.47;43.65;98380.00;6207561;28;125045;-61
2021/01/27 12:46:48;;;;;;;;;16.00;16.00;;;;;8.61;43.65;98386.06;6191182;28;124388;-61
2021/01/27 12:49:50;;;;;;;;;17.40;15.80;;;;;8.65;43.40;98381.91;6190427;28;126647;-61
2021/01/27 12:52:51;;;;;;;;;18.00;17.00;;;;;8.32;43.02;98330.34;6208134;28;125360;-58
2021/01/27 12:55:53;;;;;;;;;18.00;16.00;;;;;8.62;42.92;98374.28;6208324;28;126609;-59
2021/01/27 12:58:55;;;;;;;;;18.60;17.20;;;;;8.66;43.09;98378.16;6207422;28;126613;-58
2021/01/27 13:01:57;;;;;;;;;18.00;16.00;;;;;8.65;43.23;98379.19;6207878;28;124999;-58
2021/01/27 13:04:58;;;;;;;;;15.00;13.80;;;;;8.64;43.23;98386.47;6190431;28;125613;-58
2021/01/27 13:08:04;;;;;;;;;16.00;15.00;;;;;8.75;43.05;98395.66;6190265;28;124552;-57
2021/01/27 13:11:05;;;;;;;;;15.00;13.40;;;;;8.52;42.68;98364.03;6207603;28;125446;-60
2021/01/27 13:14:07;;;;;;;;;16.00;15.00;;;;;8.59;42.75;98397.06;6206302;28;125537;-61
2021/01/27 13:17:08;;;;;;;;;16.00;15.00;;;;;8.60;43.19;98408.63;6204936;28;126851;-60
2021/01/27 13:20:12;;;;;;;;;14.20;14.20;;;;;8.59;43.27;98398.91;6208604;28;126125;-59
2021/01/27 13:23:13;;;;;;;;;17.00;16.00;;;;;8.59;43.59;98406.97;6207954;28;126433;-59
2021/01/27 13:26:18;;;;;;;;;18.60;16.60;;;;;8.54;43.45;98394.22;6208671;28;124046;-60
2021/01/27 13:29:19;;;;;;;;;16.00;15.60;;;;;8.46;43.39;98372.16;6209001;28;126742;-58
2021/01/27 13:32:20;;;;;;;;;18.00;17.00;;;;;8.68;43.33;98401.09;6207533;28;126299;-59
2021/01/27 13:35:26;;;;;;;;;16.00;15.00;;;;;8.62;43.25;98412.72;6208786;28;126579;-59
2021/01/27 13:38:27;;;;;;;;;15.25;14.50;;;;;8.47;43.34;98395.28;6207401;28;127124;-59
2021/01/27 13:41:28;;;;;;;;;17.00;15.60;;;;;8.56;43.79;98410.09;6207363;28;125479;-59
2021/01/27 13:44:30;;;;;;;;;17.50;16.25;;;;;8.58;44.16;98408.84;6207414;28;127547;-61
2021/01/27 13:47:33;;;;;;;;;17.00;17.00;;;;;8.27;43.63;98366.72;6207129;28;96710;-60
2021/01/27 13:50:35;;;;;;;;;18.40;17.00;;;;;8.53;43.53;98407.84;6207183;28;126835;-60
2021/01/27 13:53:37;;;;;;;;;17.60;16.00;;;;;8.49;43.78;98407.47;6189263;28;125863;-60
2021/01/27 13:56:40;;;;;;;;;18.25;16.25;;;;;8.52;44.02;98401.66;6207029;28;126644;-59
2021/01/27 13:59:42;;;;;;;;;19.40;18.00;;;;;8.38;44.17;98383.19;6189378;28;124940;-59
2021/01/27 14:02:43;;;;;;;;;18.50;17.50;;;;;8.47;44.27;98398.81;6187467;28;125591;-60
2021/01/27 14:05:46;;;;;;;;;21.60;20.00;;;;;8.48;44.27;98408.53;6203939;28;126390;-59
2021/01/27 14:08:47;;;;;;;;;19.00;17.40;;;;;8.22;44.26;98357.66;6206977;28;127003;-58
2021/01/27 14:11:49;;;;;;;;;19.00;17.60;;;;;8.38;44.40;98396.63;6188494;28;126919;-60
2021/01/27 14:14:50;;;;;;;;;21.80;19.40;;;;;8.62;44.15;98406.53;6203913;28;127537;-60
2021/01/27 14:17:52;;;;;;;;;27.00;23.00;;;;;8.66;43.84;98410.41;6181044;28;126256;-59
2021/01/27 14:20:54;;;;;;;;;22.80;20.20;;;;;8.21;43.93;98353.34;6202450;28;125428;-60
2021/01/27 14:23:55;;;;;;;;;22.00;20.00;;;;;8.14;44.03;98352.59;6207723;28;127366;-61